sensor_id;sensor_type;location;lat;lon;timestamp;P1;durP1;ratioP1;P2;durP2;ratioP2
18879;SDS011;9572;52.378;13.404;2023-04-15T00:01:03;35.50;;;22.47;;
18879;SDS011;9572;52.378;13.404;2023-04-15T00:03:30;39.63;;;22.30;;
18879;SDS011;9572;52.378;13.404;2023-04-15T00:05:58;40.70;;;22.33;;
18879;SDS011;9572;52.378;13.404;2023-04-15T00:08:26;37.03;;;22.10;;
18879;SDS011;9572;52.378;13.404;2023-04-15T00:10:54;35.63;;;22.03;;
18879;SDS011;9572;52.378;13.404;2023-04-15T00:13:20;37.77;;;22.70;;
18879;SDS011;9572;52.378;13.404;2023-04-15T00:15:47;37.53;;;23.27;;
18879;SDS011;9572;52.378;13.404;2023-04-15T00:18:14;36.80;;;22.80;;
18879;SDS011;9572;52.378;13.404;2023-04-15T00:20:41;43.13;;;24.00;;
18879;SDS011;9572;52.378;13.404;2023-04-15T00:23:08;40.03;;;24.37;;
18879;SDS011;9572;52.378;13.404;2023-04-15T00:25:36;36.70;;;22.87;;
18879;SDS011;9572;52.378;13.404;2023-04-15T00:28:03;39.57;;;23.93;;
18879;SDS011;9572;52.378;13.404;2023-04-15T00:30:30;35.50;;;23.10;;
18879;SDS011;9572;52.378;13.404;2023-04-15T00:33:06;37.53;;;23.27;;
18879;SDS011;9572;52.378;13.404;2023-04-15T00:35:36;33.73;;;22.67;;
18879;SDS011;9572;52.378;13.404;2023-04-15T00:38:04;43.87;;;24.87;;
18879;SDS011;9572;52.378;13.404;2023-04-15T00:40:32;45.23;;;26.90;;
18879;SDS011;9572;52.378;13.404;2023-04-15T00:43:01;43.23;;;25.33;;
18879;SDS011;9572;52.378;13.404;2023-04-15T00:45:28;44.60;;;26.20;;
18879;SDS011;9572;52.378;13.404;2023-04-15T00:47:55;43.87;;;25.97;;
18879;SDS011;9572;52.378;13.404;2023-04-15T00:50:23;44.43;;;25.73;;
18879;SDS011;9572;52.378;13.404;2023-04-15T00:52:50;44.03;;;26.17;;
18879;SDS011;9572;52.378;13.404;2023-04-15T00:55:17;42.77;;;25.60;;
18879;SDS011;9572;52.378;13.404;2023-04-15T00:57:44;45.73;;;25.90;;
18879;SDS011;9572;52.378;13.404;2023-04-15T01:00:13;43.57;;;25.83;;
18879;SDS011;9572;52.378;13.404;2023-04-15T01:02:40;44.93;;;26.33;;
18879;SDS011;9572;52.378;13.404;2023-04-15T01:05:07;44.13;;;25.27;;
18879;SDS011;9572;52.378;13.404;2023-04-15T01:07:34;43.27;;;25.67;;
18879;SDS011;9572;52.378;13.404;2023-04-15T01:10:01;43.93;;;27.00;;
18879;SDS011;9572;52.378;13.404;2023-04-15T01:12:28;46.37;;;26.67;;
18879;SDS011;9572;52.378;13.404;2023-04-15T01:14:58;43.83;;;25.97;;
18879;SDS011;9572;52.378;13.404;2023-04-15T01:17:27;42.70;;;26.23;;
18879;SDS011;9572;52.378;13.404;2023-04-15T01:19:54;49.53;;;25.43;;
18879;SDS011;9572;52.378;13.404;2023-04-15T01:22:21;49.97;;;25.63;;
18879;SDS011;9572;52.378;13.404;2023-04-15T01:24:54;44.93;;;26.30;;
18879;SDS011;9572;52.378;13.404;2023-04-15T01:27:30;46.33;;;26.97;;
18879;SDS011;9572;52.378;13.404;2023-04-15T01:29:57;45.37;;;25.93;;
18879;SDS011;9572;52.378;13.404;2023-04-15T01:32:24;48.43;;;25.97;;
18879;SDS011;9572;52.378;13.404;2023-04-15T01:34:51;50.20;;;27.50;;
18879;SDS011;9572;52.378;13.404;2023-04-15T01:37:18;44.73;;;26.00;;
18879;SDS011;9572;52.378;13.404;2023-04-15T01:39:45;49.67;;;26.67;;
18879;SDS011;9572;52.378;13.404;2023-04-15T01:42:12;49.50;;;26.43;;
18879;SDS011;9572;52.378;13.404;2023-04-15T01:44:40;44.70;;;25.63;;
18879;SDS011;9572;52.378;13.404;2023-04-15T01:47:07;50.77;;;28.27;;
18879;SDS011;9572;52.378;13.404;2023-04-15T01:49:34;50.63;;;27.40;;
18879;SDS011;9572;52.378;13.404;2023-04-15T01:52:01;52.60;;;29.23;;
18879;SDS011;9572;52.378;13.404;2023-04-15T01:54:28;55.80;;;29.40;;
18879;SDS011;9572;52.378;13.404;2023-04-15T01:56:55;58.83;;;29.87;;
18879;SDS011;9572;52.378;13.404;2023-04-15T01:59:22;50.87;;;27.47;;
18879;SDS011;9572;52.378;13.404;2023-04-15T02:01:50;58.00;;;28.80;;
18879;SDS011;9572;52.378;13.404;2023-04-15T02:04:17;55.10;;;29.13;;
18879;SDS011;9572;52.378;13.404;2023-04-15T02:06:44;55.07;;;28.83;;
18879;SDS011;9572;52.378;13.404;2023-04-15T02:09:11;50.17;;;27.93;;
18879;SDS011;9572;52.378;13.404;2023-04-15T02:11:38;56.83;;;29.03;;
18879;SDS011;9572;52.378;13.404;2023-04-15T02:14:05;56.87;;;28.97;;
18879;SDS011;9572;52.378;13.404;2023-04-15T02:16:32;59.10;;;29.20;;
18879;SDS011;9572;52.378;13.404;2023-04-15T02:19:00;53.97;;;28.57;;
18879;SDS011;9572;52.378;13.404;2023-04-15T02:21:28;56.97;;;29.33;;
18879;SDS011;9572;52.378;13.404;2023-04-15T02:23:55;68.00;;;31.40;;
18879;SDS011;9572;52.378;13.404;2023-04-15T02:26:22;55.83;;;29.27;;
18879;SDS011;9572;52.378;13.404;2023-04-15T02:28:49;57.10;;;28.77;;
18879;SDS011;9572;52.378;13.404;2023-04-15T02:31:16;53.63;;;29.03;;
18879;SDS011;9572;52.378;13.404;2023-04-15T02:33:43;58.23;;;29.73;;
18879;SDS011;9572;52.378;13.404;2023-04-15T02:36:12;61.97;;;31.57;;
18879;SDS011;9572;52.378;13.404;2023-04-15T02:38:38;60.80;;;30.43;;
18879;SDS011;9572;52.378;13.404;2023-04-15T02:41:07;60.60;;;29.33;;
18879;SDS011;9572;52.378;13.404;2023-04-15T02:46:21;56.30;;;28.13;;
18879;SDS011;9572;52.378;13.404;2023-04-15T02:55:41;64.17;;;30.07;;
18879;SDS011;9572;52.378;13.404;2023-04-15T02:58:17;61.17;;;30.17;;
18879;SDS011;9572;52.378;13.404;2023-04-15T03:01:08;61.67;;;29.60;;
18879;SDS011;9572;52.378;13.404;2023-04-15T03:24:08;58.53;;;28.17;;
18879;SDS011;9572;52.378;13.404;2023-04-15T03:29:58;60.37;;;29.30;;
18879;SDS011;9572;52.378;13.404;2023-04-15T03:33:01;60.60;;;29.00;;
18879;SDS011;9572;52.378;13.404;2023-04-15T03:35:48;59.50;;;28.10;;
18879;SDS011;9572;52.378;13.404;2023-04-15T03:38:17;52.63;;;26.93;;
18879;SDS011;9572;52.378;13.404;2023-04-15T03:40:46;64.07;;;29.00;;
18879;SDS011;9572;52.378;13.404;2023-04-15T03:44:35;53.17;;;26.77;;
18879;SDS011;9572;52.378;13.404;2023-04-15T03:46:34;54.57;;;27.30;;
18879;SDS011;9572;52.378;13.404;2023-04-15T03:49:08;51.77;;;26.30;;
18879;SDS011;9572;52.378;13.404;2023-04-15T03:51:36;52.63;;;27.63;;
18879;SDS011;9572;52.378;13.404;2023-04-15T03:54:03;54.00;;;27.60;;
18879;SDS011;9572;52.378;13.404;2023-04-15T03:56:38;53.73;;;27.50;;
18879;SDS011;9572;52.378;13.404;2023-04-15T03:59:05;53.73;;;27.33;;
18879;SDS011;9572;52.378;13.404;2023-04-15T04:01:34;48.80;;;26.20;;
18879;SDS011;9572;52.378;13.404;2023-04-15T04:04:08;47.90;;;24.90;;
18879;SDS011;9572;52.378;13.404;2023-04-15T04:06:35;52.87;;;25.87;;
18879;SDS011;9572;52.378;13.404;2023-04-15T04:09:03;56.03;;;27.70;;
18879;SDS011;9572;52.378;13.404;2023-04-15T04:11:33;51.30;;;27.33;;
18879;SDS011;9572;52.378;13.404;2023-04-15T04:14:07;57.27;;;28.10;;
18879;SDS011;9572;52.378;13.404;2023-04-15T04:16:40;48.07;;;25.43;;
18879;SDS011;9572;52.378;13.404;2023-04-15T04:19:11;47.90;;;26.03;;
18879;SDS011;9572;52.378;13.404;2023-04-15T04:21:39;46.73;;;25.73;;
18879;SDS011;9572;52.378;13.404;2023-04-15T04:24:07;48.23;;;24.97;;
18879;SDS011;9572;52.378;13.404;2023-04-15T04:26:34;49.67;;;26.57;;
18879;SDS011;9572;52.378;13.404;2023-04-15T04:29:07;42.10;;;22.97;;
18879;SDS011;9572;52.378;13.404;2023-04-15T04:31:34;44.13;;;24.67;;
18879;SDS011;9572;52.378;13.404;2023-04-15T04:34:07;48.87;;;25.03;;
18879;SDS011;9572;52.378;13.404;2023-04-15T04:36:38;47.90;;;25.50;;
18879;SDS011;9572;52.378;13.404;2023-04-15T04:39:07;48.00;;;25.70;;
18879;SDS011;9572;52.378;13.404;2023-04-15T04:41:36;47.57;;;24.37;;
18879;SDS011;9572;52.378;13.404;2023-04-15T04:44:05;45.47;;;25.40;;
18879;SDS011;9572;52.378;13.404;2023-04-15T04:46:33;45.67;;;24.37;;
18879;SDS011;9572;52.378;13.404;2023-04-15T04:49:06;44.20;;;24.10;;
18879;SDS011;9572;52.378;13.404;2023-04-15T04:51:38;42.03;;;22.57;;
18879;SDS011;9572;52.378;13.404;2023-04-15T04:54:15;43.00;;;22.77;;
18879;SDS011;9572;52.378;13.404;2023-04-15T04:56:49;45.67;;;23.43;;
18879;SDS011;9572;52.378;13.404;2023-04-15T04:59:23;39.37;;;21.87;;
18879;SDS011;9572;52.378;13.404;2023-04-15T05:01:59;37.47;;;21.40;;
18879;SDS011;9572;52.378;13.404;2023-04-15T05:04:33;43.97;;;22.70;;
18879;SDS011;9572;52.378;13.404;2023-04-15T05:07:07;42.30;;;21.70;;
18879;SDS011;9572;52.378;13.404;2023-04-15T05:09:36;36.50;;;21.53;;
18879;SDS011;9572;52.378;13.404;2023-04-15T05:12:07;42.40;;;23.37;;
18879;SDS011;9572;52.378;13.404;2023-04-15T05:14:38;39.07;;;22.47;;
18879;SDS011;9572;52.378;13.404;2023-04-15T05:17:06;40.53;;;21.17;;
18879;SDS011;9572;52.378;13.404;2023-04-15T05:19:35;35.70;;;21.80;;
18879;SDS011;9572;52.378;13.404;2023-04-15T05:22:02;39.27;;;21.87;;
18879;SDS011;9572;52.378;13.404;2023-04-15T05:24:31;37.20;;;20.17;;
18879;SDS011;9572;52.378;13.404;2023-04-15T05:27:01;33.20;;;21.23;;
18879;SDS011;9572;52.378;13.404;2023-04-15T05:29:28;35.53;;;21.07;;
18879;SDS011;9572;52.378;13.404;2023-04-15T05:31:55;31.53;;;19.47;;
18879;SDS011;9572;52.378;13.404;2023-04-15T05:34:22;30.43;;;19.20;;
18879;SDS011;9572;52.378;13.404;2023-04-15T05:36:49;31.20;;;19.23;;
18879;SDS011;9572;52.378;13.404;2023-04-15T05:39:16;33.40;;;20.03;;
18879;SDS011;9572;52.378;13.404;2023-04-15T05:41:45;32.03;;;18.93;;
18879;SDS011;9572;52.378;13.404;2023-04-15T05:44:12;28.70;;;19.13;;
18879;SDS011;9572;52.378;13.404;2023-04-15T05:46:39;31.27;;;19.00;;
18879;SDS011;9572;52.378;13.404;2023-04-15T05:49:06;28.60;;;16.97;;
18879;SDS011;9572;52.378;13.404;2023-04-15T05:51:33;27.13;;;17.13;;
18879;SDS011;9572;52.378;13.404;2023-04-15T05:54:00;29.93;;;18.10;;
18879;SDS011;9572;52.378;13.404;2023-04-15T05:56:27;25.37;;;17.23;;
18879;SDS011;9572;52.378;13.404;2023-04-15T05:58:55;25.13;;;16.77;;
18879;SDS011;9572;52.378;13.404;2023-04-15T06:01:22;27.60;;;17.53;;
18879;SDS011;9572;52.378;13.404;2023-04-15T06:03:49;26.90;;;16.97;;
18879;SDS011;9572;52.378;13.404;2023-04-15T06:06:16;25.50;;;16.73;;
18879;SDS011;9572;52.378;13.404;2023-04-15T06:08:43;25.27;;;16.67;;
18879;SDS011;9572;52.378;13.404;2023-04-15T06:11:10;26.50;;;16.77;;
18879;SDS011;9572;52.378;13.404;2023-04-15T06:13:37;24.93;;;15.90;;
18879;SDS011;9572;52.378;13.404;2023-04-15T06:16:05;23.57;;;14.67;;
18879;SDS011;9572;52.378;13.404;2023-04-15T06:18:33;24.13;;;15.10;;
18879;SDS011;9572;52.378;13.404;2023-04-15T06:21:00;24.07;;;15.93;;
18879;SDS011;9572;52.378;13.404;2023-04-15T06:23:27;21.13;;;14.70;;
18879;SDS011;9572;52.378;13.404;2023-04-15T06:25:53;23.53;;;15.23;;
18879;SDS011;9572;52.378;13.404;2023-04-15T06:28:20;30.03;;;17.67;;
18879;SDS011;9572;52.378;13.404;2023-04-15T06:30:47;21.93;;;15.13;;
18879;SDS011;9572;52.378;13.404;2023-04-15T06:33:16;20.03;;;13.93;;
18879;SDS011;9572;52.378;13.404;2023-04-15T06:35:43;19.03;;;13.30;;
18879;SDS011;9572;52.378;13.404;2023-04-15T06:38:10;21.73;;;14.73;;
18879;SDS011;9572;52.378;13.404;2023-04-15T06:40:37;22.23;;;13.87;;
18879;SDS011;9572;52.378;13.404;2023-04-15T06:43:04;22.00;;;14.73;;
18879;SDS011;9572;52.378;13.404;2023-04-15T06:45:30;21.83;;;14.70;;
18879;SDS011;9572;52.378;13.404;2023-04-15T06:47:57;25.40;;;14.60;;
18879;SDS011;9572;52.378;13.404;2023-04-15T06:50:26;20.13;;;14.00;;
18879;SDS011;9572;52.378;13.404;2023-04-15T06:52:53;18.20;;;13.30;;
18879;SDS011;9572;52.378;13.404;2023-04-15T06:55:21;19.77;;;12.43;;
18879;SDS011;9572;52.378;13.404;2023-04-15T06:57:48;17.80;;;12.07;;
18879;SDS011;9572;52.378;13.404;2023-04-15T07:00:15;21.63;;;13.80;;
18879;SDS011;9572;52.378;13.404;2023-04-15T07:02:43;23.20;;;12.90;;
18879;SDS011;9572;52.378;13.404;2023-04-15T07:05:10;20.33;;;13.10;;
18879;SDS011;9572;52.378;13.404;2023-04-15T07:07:38;20.93;;;13.00;;
18879;SDS011;9572;52.378;13.404;2023-04-15T07:10:06;17.10;;;12.33;;
18879;SDS011;9572;52.378;13.404;2023-04-15T07:12:34;17.17;;;12.27;;
18879;SDS011;9572;52.378;13.404;2023-04-15T07:15:01;15.20;;;11.90;;
18879;SDS011;9572;52.378;13.404;2023-04-15T07:17:28;22.27;;;12.40;;
18879;SDS011;9572;52.378;13.404;2023-04-15T07:19:54;17.03;;;12.00;;
18879;SDS011;9572;52.378;13.404;2023-04-15T07:22:21;17.87;;;11.50;;
18879;SDS011;9572;52.378;13.404;2023-04-15T07:24:50;18.07;;;11.20;;
18879;SDS011;9572;52.378;13.404;2023-04-15T07:27:16;24.40;;;12.03;;
18879;SDS011;9572;52.378;13.404;2023-04-15T07:29:43;18.20;;;12.23;;
18879;SDS011;9572;52.378;13.404;2023-04-15T07:32:10;18.77;;;11.70;;
18879;SDS011;9572;52.378;13.404;2023-04-15T07:34:37;16.07;;;11.43;;
18879;SDS011;9572;52.378;13.404;2023-04-15T07:37:05;18.60;;;13.60;;
18879;SDS011;9572;52.378;13.404;2023-04-15T07:39:32;18.70;;;12.87;;
18879;SDS011;9572;52.378;13.404;2023-04-15T07:42:00;35.23;;;21.87;;
18879;SDS011;9572;52.378;13.404;2023-04-15T07:44:27;18.93;;;13.43;;
18879;SDS011;9572;52.378;13.404;2023-04-15T07:46:55;22.00;;;13.47;;
18879;SDS011;9572;52.378;13.404;2023-04-15T07:49:22;20.47;;;13.33;;
18879;SDS011;9572;52.378;13.404;2023-04-15T07:51:49;22.00;;;13.57;;
18879;SDS011;9572;52.378;13.404;2023-04-15T07:54:16;22.43;;;16.23;;
18879;SDS011;9572;52.378;13.404;2023-04-15T07:56:42;22.27;;;14.83;;
18879;SDS011;9572;52.378;13.404;2023-04-15T07:59:11;23.20;;;15.00;;
18879;SDS011;9572;52.378;13.404;2023-04-15T08:01:39;21.57;;;14.93;;
18879;SDS011;9572;52.378;13.404;2023-04-15T08:04:06;23.73;;;14.70;;
18879;SDS011;9572;52.378;13.404;2023-04-15T08:06:33;20.37;;;14.97;;
18879;SDS011;9572;52.378;13.404;2023-04-15T08:09:00;19.97;;;14.43;;
18879;SDS011;9572;52.378;13.404;2023-04-15T08:11:27;21.93;;;14.97;;
18879;SDS011;9572;52.378;13.404;2023-04-15T08:13:55;20.13;;;15.07;;
18879;SDS011;9572;52.378;13.404;2023-04-15T08:16:24;21.13;;;15.20;;
18879;SDS011;9572;52.378;13.404;2023-04-15T08:18:54;22.00;;;15.07;;
18879;SDS011;9572;52.378;13.404;2023-04-15T08:21:21;19.20;;;15.20;;
18879;SDS011;9572;52.378;13.404;2023-04-15T08:23:49;21.70;;;15.60;;
18879;SDS011;9572;52.378;13.404;2023-04-15T08:26:17;22.27;;;15.90;;
18879;SDS011;9572;52.378;13.404;2023-04-15T08:28:45;22.83;;;16.87;;
18879;SDS011;9572;52.378;13.404;2023-04-15T08:31:12;24.17;;;15.90;;
18879;SDS011;9572;52.378;13.404;2023-04-15T08:33:42;22.30;;;16.37;;
18879;SDS011;9572;52.378;13.404;2023-04-15T08:36:09;27.03;;;17.23;;
18879;SDS011;9572;52.378;13.404;2023-04-15T08:38:36;34.27;;;21.87;;
18879;SDS011;9572;52.378;13.404;2023-04-15T08:41:04;22.30;;;16.60;;
18879;SDS011;9572;52.378;13.404;2023-04-15T08:43:37;21.13;;;15.73;;
18879;SDS011;9572;52.378;13.404;2023-04-15T08:46:09;24.87;;;15.50;;
18879;SDS011;9572;52.378;13.404;2023-04-15T08:48:37;23.53;;;15.83;;
18879;SDS011;9572;52.378;13.404;2023-04-15T08:51:06;22.57;;;16.03;;
18879;SDS011;9572;52.378;13.404;2023-04-15T08:53:34;21.27;;;15.77;;
18879;SDS011;9572;52.378;13.404;2023-04-15T08:56:02;24.37;;;16.60;;
18879;SDS011;9572;52.378;13.404;2023-04-15T08:58:32;22.13;;;15.70;;
18879;SDS011;9572;52.378;13.404;2023-04-15T09:01:00;25.30;;;16.40;;
18879;SDS011;9572;52.378;13.404;2023-04-15T09:03:27;26.97;;;16.60;;
18879;SDS011;9572;52.378;13.404;2023-04-15T09:05:55;19.53;;;14.43;;
18879;SDS011;9572;52.378;13.404;2023-04-15T09:08:24;24.23;;;15.47;;
18879;SDS011;9572;52.378;13.404;2023-04-15T09:10:51;20.30;;;14.77;;
18879;SDS011;9572;52.378;13.404;2023-04-15T09:13:19;21.73;;;15.10;;
18879;SDS011;9572;52.378;13.404;2023-04-15T09:15:46;20.07;;;14.20;;
18879;SDS011;9572;52.378;13.404;2023-04-15T09:18:13;20.17;;;14.30;;
18879;SDS011;9572;52.378;13.404;2023-04-15T09:20:53;19.27;;;14.43;;
18879;SDS011;9572;52.378;13.404;2023-04-15T09:23:21;18.80;;;14.90;;
18879;SDS011;9572;52.378;13.404;2023-04-15T09:25:50;18.13;;;13.67;;
18879;SDS011;9572;52.378;13.404;2023-04-15T09:28:22;17.03;;;13.07;;
18879;SDS011;9572;52.378;13.404;2023-04-15T09:30:51;18.83;;;13.17;;
18879;SDS011;9572;52.378;13.404;2023-04-15T09:33:21;18.77;;;13.83;;
18879;SDS011;9572;52.378;13.404;2023-04-15T09:35:58;18.30;;;14.47;;
18879;SDS011;9572;52.378;13.404;2023-04-15T09:38:28;19.43;;;14.30;;
18879;SDS011;9572;52.378;13.404;2023-04-15T09:40:55;21.33;;;14.60;;
18879;SDS011;9572;52.378;13.404;2023-04-15T09:43:22;19.67;;;14.87;;
18879;SDS011;9572;52.378;13.404;2023-04-15T09:46:02;22.57;;;15.50;;
18879;SDS011;9572;52.378;13.404;2023-04-15T09:48:29;19.17;;;14.87;;
18879;SDS011;9572;52.378;13.404;2023-04-15T09:50:56;19.50;;;14.43;;
18879;SDS011;9572;52.378;13.404;2023-04-15T09:53:24;21.23;;;15.13;;
18879;SDS011;9572;52.378;13.404;2023-04-15T09:55:53;20.10;;;14.20;;
18879;SDS011;9572;52.378;13.404;2023-04-15T09:58:21;22.43;;;15.17;;
18879;SDS011;9572;52.378;13.404;2023-04-15T10:00:50;20.80;;;14.80;;
18879;SDS011;9572;52.378;13.404;2023-04-15T10:03:18;27.97;;;15.53;;
18879;SDS011;9572;52.378;13.404;2023-04-15T10:05:47;21.30;;;14.63;;
18879;SDS011;9572;52.378;13.404;2023-04-15T10:08:18;20.07;;;14.93;;
18879;SDS011;9572;52.378;13.404;2023-04-15T10:10:50;18.87;;;13.57;;
18879;SDS011;9572;52.378;13.404;2023-04-15T10:13:24;20.77;;;14.20;;
18879;SDS011;9572;52.378;13.404;2023-04-15T10:15:56;18.07;;;14.20;;
18879;SDS011;9572;52.378;13.404;2023-04-15T10:18:29;20.43;;;13.87;;
18879;SDS011;9572;52.378;13.404;2023-04-15T10:21:03;18.30;;;13.00;;
18879;SDS011;9572;52.378;13.404;2023-04-15T10:23:32;16.40;;;13.47;;
18879;SDS011;9572;52.378;13.404;2023-04-15T10:26:02;18.77;;;13.67;;
18879;SDS011;9572;52.378;13.404;2023-04-15T10:28:30;16.23;;;13.07;;
18879;SDS011;9572;52.378;13.404;2023-04-15T10:30:57;15.50;;;12.80;;
18879;SDS011;9572;52.378;13.404;2023-04-15T10:33:24;18.63;;;13.67;;
18879;SDS011;9572;52.378;13.404;2023-04-15T10:35:53;18.17;;;13.27;;
18879;SDS011;9572;52.378;13.404;2023-04-15T10:38:33;21.00;;;14.57;;
18879;SDS011;9572;52.378;13.404;2023-04-15T10:41:12;16.80;;;13.77;;
18879;SDS011;9572;52.378;13.404;2023-04-15T10:43:44;19.67;;;13.73;;
18879;SDS011;9572;52.378;13.404;2023-04-15T10:46:13;17.27;;;14.00;;
18879;SDS011;9572;52.378;13.404;2023-04-15T10:48:46;16.93;;;13.53;;
18879;SDS011;9572;52.378;13.404;2023-04-15T10:51:14;18.87;;;13.00;;
18879;SDS011;9572;52.378;13.404;2023-04-15T10:53:41;16.57;;;12.93;;
18879;SDS011;9572;52.378;13.404;2023-04-15T10:56:08;17.63;;;13.13;;
18879;SDS011;9572;52.378;13.404;2023-04-15T10:58:41;16.13;;;12.83;;
18879;SDS011;9572;52.378;13.404;2023-04-15T11:01:08;16.73;;;12.53;;
18879;SDS011;9572;52.378;13.404;2023-04-15T11:03:36;16.37;;;12.77;;
18879;SDS011;9572;52.378;13.404;2023-04-15T11:06:04;17.97;;;13.40;;
18879;SDS011;9572;52.378;13.404;2023-04-15T11:11:22;19.50;;;13.70;;
18879;SDS011;9572;52.378;13.404;2023-04-15T11:14:14;17.43;;;12.73;;
18879;SDS011;9572;52.378;13.404;2023-04-15T11:16:41;14.83;;;12.20;;
18879;SDS011;9572;52.378;13.404;2023-04-15T11:19:09;14.93;;;12.33;;
18879;SDS011;9572;52.378;13.404;2023-04-15T11:21:36;16.17;;;12.23;;
18879;SDS011;9572;52.378;13.404;2023-04-15T11:24:03;16.70;;;12.33;;
18879;SDS011;9572;52.378;13.404;2023-04-15T11:26:30;16.30;;;12.60;;
18879;SDS011;9572;52.378;13.404;2023-04-15T11:28:57;16.33;;;13.00;;
18879;SDS011;9572;52.378;13.404;2023-04-15T11:31:27;15.33;;;12.17;;
18879;SDS011;9572;52.378;13.404;2023-04-15T11:33:54;16.90;;;12.50;;
18879;SDS011;9572;52.378;13.404;2023-04-15T11:36:23;15.53;;;12.60;;
18879;SDS011;9572;52.378;13.404;2023-04-15T11:38:51;15.90;;;13.23;;
18879;SDS011;9572;52.378;13.404;2023-04-15T11:41:19;16.03;;;12.07;;
18879;SDS011;9572;52.378;13.404;2023-04-15T11:43:46;17.57;;;11.93;;
18879;SDS011;9572;52.378;13.404;2023-04-15T11:46:13;16.33;;;12.47;;
18879;SDS011;9572;52.378;13.404;2023-04-15T11:48:42;17.10;;;12.80;;
18879;SDS011;9572;52.378;13.404;2023-04-15T11:51:10;15.07;;;12.03;;
18879;SDS011;9572;52.378;13.404;2023-04-15T11:53:39;15.23;;;12.07;;
18879;SDS011;9572;52.378;13.404;2023-04-15T11:56:08;15.27;;;11.50;;
18879;SDS011;9572;52.378;13.404;2023-04-15T11:58:36;15.23;;;12.00;;
18879;SDS011;9572;52.378;13.404;2023-04-15T12:01:04;15.23;;;11.90;;
18879;SDS011;9572;52.378;13.404;2023-04-15T12:03:36;19.37;;;11.63;;
18879;SDS011;9572;52.378;13.404;2023-04-15T12:06:12;16.70;;;11.93;;
18879;SDS011;9572;52.378;13.404;2023-04-15T12:11:34;16.07;;;12.10;;
18879;SDS011;9572;52.378;13.404;2023-04-15T12:14:03;14.83;;;12.00;;
18879;SDS011;9572;52.378;13.404;2023-04-15T12:16:35;16.73;;;12.57;;
18879;SDS011;9572;52.378;13.404;2023-04-15T12:19:05;15.67;;;12.03;;
18879;SDS011;9572;52.378;13.404;2023-04-15T12:21:36;14.43;;;12.03;;
18879;SDS011;9572;52.378;13.404;2023-04-15T12:24:05;15.90;;;12.40;;
18879;SDS011;9572;52.378;13.404;2023-04-15T12:26:34;12.90;;;10.90;;
18879;SDS011;9572;52.378;13.404;2023-04-15T12:29:03;14.63;;;12.00;;
18879;SDS011;9572;52.378;13.404;2023-04-15T12:31:31;15.63;;;11.63;;
18879;SDS011;9572;52.378;13.404;2023-04-15T12:33:59;16.53;;;12.87;;
18879;SDS011;9572;52.378;13.404;2023-04-15T12:36:26;13.70;;;11.37;;
18879;SDS011;9572;52.378;13.404;2023-04-15T12:38:55;14.57;;;11.20;;
18879;SDS011;9572;52.378;13.404;2023-04-15T12:41:22;13.70;;;11.57;;
18879;SDS011;9572;52.378;13.404;2023-04-15T12:43:49;12.10;;;10.30;;
18879;SDS011;9572;52.378;13.404;2023-04-15T12:46:16;12.57;;;11.00;;
18879;SDS011;9572;52.378;13.404;2023-04-15T12:48:44;15.23;;;10.63;;
18879;SDS011;9572;52.378;13.404;2023-04-15T12:51:11;12.87;;;9.97;;
18879;SDS011;9572;52.378;13.404;2023-04-15T12:53:38;12.47;;;9.67;;
18879;SDS011;9572;52.378;13.404;2023-04-15T12:56:07;10.83;;;9.57;;
18879;SDS011;9572;52.378;13.404;2023-04-15T12:58:34;11.53;;;9.57;;
18879;SDS011;9572;52.378;13.404;2023-04-15T13:01:01;10.83;;;9.43;;
18879;SDS011;9572;52.378;13.404;2023-04-15T13:03:28;12.27;;;10.43;;
18879;SDS011;9572;52.378;13.404;2023-04-15T13:05:55;15.77;;;12.37;;
18879;SDS011;9572;52.378;13.404;2023-04-15T13:08:22;12.17;;;10.30;;
18879;SDS011;9572;52.378;13.404;2023-04-15T13:10:49;14.73;;;11.03;;
18879;SDS011;9572;52.378;13.404;2023-04-15T13:13:17;12.97;;;10.53;;
18879;SDS011;9572;52.378;13.404;2023-04-15T13:15:44;10.13;;;9.10;;
18879;SDS011;9572;52.378;13.404;2023-04-15T13:18:11;14.70;;;9.93;;
18879;SDS011;9572;52.378;13.404;2023-04-15T13:20:38;11.53;;;9.40;;
18879;SDS011;9572;52.378;13.404;2023-04-15T13:23:05;11.57;;;9.70;;
18879;SDS011;9572;52.378;13.404;2023-04-15T13:25:32;12.03;;;9.70;;
18879;SDS011;9572;52.378;13.404;2023-04-15T13:27:59;12.47;;;9.43;;
18879;SDS011;9572;52.378;13.404;2023-04-15T13:30:27;11.67;;;9.87;;
18879;SDS011;9572;52.378;13.404;2023-04-15T13:32:55;12.50;;;10.27;;
18879;SDS011;9572;52.378;13.404;2023-04-15T13:35:22;12.43;;;10.43;;
18879;SDS011;9572;52.378;13.404;2023-04-15T13:37:49;24.30;;;16.80;;
18879;SDS011;9572;52.378;13.404;2023-04-15T13:40:15;15.37;;;10.63;;
18879;SDS011;9572;52.378;13.404;2023-04-15T13:42:42;21.70;;;13.10;;
18879;SDS011;9572;52.378;13.404;2023-04-15T13:45:10;17.73;;;11.73;;
18879;SDS011;9572;52.378;13.404;2023-04-15T13:47:38;14.00;;;10.73;;
18879;SDS011;9572;52.378;13.404;2023-04-15T13:50:06;12.73;;;10.57;;
18879;SDS011;9572;52.378;13.404;2023-04-15T13:52:33;13.57;;;9.53;;
18879;SDS011;9572;52.378;13.404;2023-04-15T13:55:01;12.45;;;9.77;;
18879;SDS011;9572;52.378;13.404;2023-04-15T13:57:28;13.00;;;10.40;;
18879;SDS011;9572;52.378;13.404;2023-04-15T13:59:56;10.03;;;8.73;;
18879;SDS011;9572;52.378;13.404;2023-04-15T14:02:23;10.40;;;8.70;;
18879;SDS011;9572;52.378;13.404;2023-04-15T14:04:51;9.88;;;8.77;;
18879;SDS011;9572;52.378;13.404;2023-04-15T14:07:18;11.43;;;9.10;;
18879;SDS011;9572;52.378;13.404;2023-04-15T14:09:45;13.40;;;9.57;;
18879;SDS011;9572;52.378;13.404;2023-04-15T14:12:12;11.13;;;9.27;;
18879;SDS011;9572;52.378;13.404;2023-04-15T14:14:40;11.37;;;9.50;;
18879;SDS011;9572;52.378;13.404;2023-04-15T14:17:06;13.85;;;9.98;;
18879;SDS011;9572;52.378;13.404;2023-04-15T14:19:33;9.63;;;8.60;;
18879;SDS011;9572;52.378;13.404;2023-04-15T14:22:02;11.40;;;8.90;;
18879;SDS011;9572;52.378;13.404;2023-04-15T14:24:28;10.80;;;9.05;;
18879;SDS011;9572;52.378;13.404;2023-04-15T14:26:55;9.53;;;8.43;;
18879;SDS011;9572;52.378;13.404;2023-04-15T14:29:23;9.93;;;8.43;;
18879;SDS011;9572;52.378;13.404;2023-04-15T14:31:50;10.23;;;8.95;;
18879;SDS011;9572;52.378;13.404;2023-04-15T14:34:17;12.25;;;9.27;;
18879;SDS011;9572;52.378;13.404;2023-04-15T14:36:46;11.87;;;9.33;;
18879;SDS011;9572;52.378;13.404;2023-04-15T14:39:14;11.23;;;9.30;;
18879;SDS011;9572;52.378;13.404;2023-04-15T14:41:41;10.90;;;8.73;;
18879;SDS011;9572;52.378;13.404;2023-04-15T14:44:08;10.40;;;9.27;;
18879;SDS011;9572;52.378;13.404;2023-04-15T14:46:35;11.60;;;9.30;;
18879;SDS011;9572;52.378;13.404;2023-04-15T14:49:02;10.00;;;9.00;;
18879;SDS011;9572;52.378;13.404;2023-04-15T14:51:29;10.10;;;8.82;;
18879;SDS011;9572;52.378;13.404;2023-04-15T14:53:56;11.43;;;8.97;;
18879;SDS011;9572;52.378;13.404;2023-04-15T14:56:25;11.00;;;8.67;;
18879;SDS011;9572;52.378;13.404;2023-04-15T14:58:52;10.07;;;8.43;;
18879;SDS011;9572;52.378;13.404;2023-04-15T15:01:19;13.63;;;8.77;;
18879;SDS011;9572;52.378;13.404;2023-04-15T15:03:46;12.27;;;9.43;;
18879;SDS011;9572;52.378;13.404;2023-04-15T15:06:14;14.87;;;9.03;;
18879;SDS011;9572;52.378;13.404;2023-04-15T15:08:41;13.67;;;10.37;;
18879;SDS011;9572;52.378;13.404;2023-04-15T15:11:07;12.10;;;9.90;;